createdAt,value
2023-05-06T00:07:49.625Z,8.00
2023-05-06T00:12:52.300Z,7.80
2023-05-06T00:17:55.705Z,7.90
2023-05-06T00:22:59.000Z,7.90
2023-05-06T00:28:01.485Z,7.80
2023-05-06T00:33:04.167Z,7.90
2023-05-06T00:38:12.076Z,7.90
2023-05-06T00:43:14.672Z,7.90
2023-05-06T00:48:17.919Z,7.90
2023-05-06T00:53:22.019Z,7.90
2023-05-06T00:58:24.619Z,8.00
2023-05-06T01:03:27.339Z,8.00
2023-05-06T01:08:41.548Z,8.00
2023-05-06T01:14:03.567Z,8.10
2023-05-06T01:19:09.989Z,8.10
2023-05-06T01:24:12.424Z,8.20
2023-05-06T01:29:14.978Z,8.10
2023-05-06T01:34:52.784Z,8.10
2023-05-06T01:39:58.732Z,8.10
2023-05-06T01:45:03.263Z,8.00
2023-05-06T01:50:06.967Z,8.10
2023-05-06T01:55:09.953Z,7.90
2023-05-06T02:00:12.917Z,7.90
2023-05-06T02:05:15.722Z,7.90
2023-05-06T02:10:22.325Z,7.90
2023-05-06T02:15:31.724Z,7.90
2023-05-06T02:20:35.425Z,7.90
2023-05-06T02:30:40.904Z,8.00
2023-05-06T02:40:46.346Z,8.10
2023-05-06T02:45:48.848Z,8.10
2023-05-06T02:50:51.830Z,8.10
2023-05-06T02:55:54.632Z,8.10
2023-05-06T03:11:03.227Z,8.00
2023-05-06T03:16:06.194Z,8.10
2023-05-06T03:21:08.909Z,8.10
2023-05-06T03:31:17.360Z,8.20
2023-05-06T03:36:20.140Z,8.20
2023-05-06T03:41:25.119Z,8.20
2023-05-06T03:46:28.188Z,8.30
2023-05-06T03:51:31.080Z,8.30
2023-05-06T03:56:33.769Z,8.40
2023-05-06T04:01:36.570Z,8.50
2023-05-06T04:06:39.448Z,8.60
2023-05-06T04:16:48.338Z,8.50
2023-05-06T04:21:50.943Z,8.60
2023-05-06T04:26:55.806Z,8.70
2023-05-06T04:37:03.846Z,8.80
2023-05-06T04:42:29.315Z,8.90
2023-05-06T04:47:41.824Z,9.00
2023-05-06T04:52:44.879Z,9.00
2023-05-06T04:57:48.517Z,9.10
2023-05-06T05:02:51.275Z,9.20
2023-05-06T05:07:54.696Z,9.20
2023-05-06T05:12:58.129Z,9.20
2023-05-06T05:18:00.992Z,9.30
2023-05-06T05:28:07.994Z,9.40
2023-05-06T05:33:12.629Z,9.30
2023-05-06T05:38:16.641Z,9.50
2023-05-06T05:43:22.018Z,9.70
2023-05-06T05:48:25.835Z,9.70
2023-05-06T05:53:28.545Z,9.80
2023-05-06T05:58:31.658Z,9.90
2023-05-06T06:03:35.667Z,10.00
2023-05-06T06:08:38.382Z,10.10
2023-05-06T06:13:41.313Z,10.30
2023-05-06T06:18:43.916Z,10.50
2023-05-06T06:23:46.735Z,10.50
2023-05-06T06:28:49.482Z,10.40
2023-05-06T06:33:52.159Z,10.60
2023-05-06T06:38:54.671Z,10.80
2023-05-06T06:43:57.111Z,11.00
2023-05-06T06:49:02.092Z,11.00
2023-05-06T06:54:04.767Z,11.00
2023-05-06T06:59:08.156Z,10.60
2023-05-06T07:04:10.867Z,10.60
2023-05-06T07:09:13.515Z,10.70
2023-05-06T07:14:16.527Z,10.60
2023-05-06T07:19:19.520Z,10.30
2023-05-06T07:24:22.400Z,10.20
2023-05-06T07:29:24.856Z,10.10
2023-05-06T07:34:27.549Z,10.10
2023-05-06T07:39:31.130Z,10.30
2023-05-06T07:44:33.591Z,10.30
2023-05-06T07:49:36.082Z,10.40
2023-05-06T07:54:38.927Z,10.50
2023-05-06T07:59:42.238Z,10.50
2023-05-06T08:04:46.142Z,10.40
2023-05-06T08:09:48.704Z,10.50
2023-05-06T08:14:51.169Z,10.40
2023-05-06T08:19:53.817Z,10.30
2023-05-06T08:24:57.484Z,10.30
2023-05-06T08:30:00.156Z,10.40
2023-05-06T08:35:02.621Z,10.30
2023-05-06T08:40:05.826Z,10.20
2023-05-06T08:45:09.342Z,10.20
2023-05-06T08:50:12.235Z,10.30
2023-05-06T08:55:15.339Z,10.30
2023-05-06T09:00:18.021Z,10.20
2023-05-06T09:05:20.655Z,10.20
2023-05-06T09:10:23.192Z,10.20
2023-05-06T09:15:29.822Z,10.30
2023-05-06T09:20:34.441Z,10.20
2023-05-06T09:25:37.908Z,10.30
2023-05-06T09:30:45.660Z,10.30
2023-05-06T09:35:49.975Z,10.20
2023-05-06T09:40:52.571Z,10.40
2023-05-06T09:45:55.181Z,10.40
2023-05-06T09:51:01.125Z,10.40
2023-05-06T09:56:06.405Z,10.50
2023-05-06T10:01:09.952Z,10.50
2023-05-06T10:06:12.775Z,10.50
2023-05-06T10:11:16.203Z,10.70
2023-05-06T10:16:19.591Z,10.70
2023-05-06T10:21:27.999Z,10.60
2023-05-06T10:26:31.666Z,10.80
2023-05-06T10:37:52.391Z,10.90
2023-05-06T10:43:31.004Z,11.20
2023-05-06T10:48:36.304Z,11.10
2023-05-06T10:54:02.401Z,11.30
2023-05-06T10:59:10.087Z,11.30
2023-05-06T11:04:14.848Z,11.10
2023-05-06T11:09:18.887Z,11.10
2023-05-06T11:14:41.715Z,11.20
2023-05-06T11:19:44.381Z,11.10
2023-05-06T11:24:46.813Z,11.00
2023-05-06T11:29:49.296Z,11.00
2023-05-06T11:34:56.420Z,10.90
2023-05-06T11:39:58.887Z,10.80
2023-05-06T11:45:02.205Z,10.60
2023-05-06T11:50:07.682Z,10.60
2023-05-06T11:55:11.296Z,10.60
2023-05-06T12:00:14.590Z,10.40
2023-05-06T12:05:17.124Z,10.40
2023-05-06T12:10:20.367Z,10.40
2023-05-06T12:15:23.088Z,10.40
2023-05-06T12:20:25.602Z,10.30
2023-05-06T12:25:29.618Z,10.00
2023-05-06T12:30:34.175Z,9.90
2023-05-06T12:35:36.915Z,9.80
2023-05-06T12:40:41.011Z,9.50
2023-05-06T12:45:45.899Z,9.50
2023-05-06T12:55:52.893Z,9.40
2023-05-06T13:00:55.803Z,9.30
2023-05-06T13:11:02.541Z,9.20
2023-05-06T13:16:05.603Z,9.10
2023-05-06T13:21:08.085Z,8.90
2023-05-06T13:26:10.602Z,8.80
2023-05-06T13:31:13.107Z,8.70
2023-05-06T13:36:15.919Z,8.40
2023-05-06T13:41:19.733Z,8.30
2023-05-06T13:46:23.246Z,8.30
2023-05-06T13:51:31.684Z,8.20
2023-05-06T13:56:34.963Z,8.00
2023-05-06T14:01:37.522Z,7.90
2023-05-06T14:11:43.221Z,8.10
2023-05-06T14:21:48.919Z,8.30
2023-05-06T14:26:52.472Z,8.20
2023-05-06T14:31:55.068Z,8.20
2023-05-06T14:47:04.498Z,7.60
2023-05-06T14:57:12.049Z,7.30
2023-05-06T15:02:14.673Z,7.40
2023-05-06T15:07:17.474Z,7.30
2023-05-06T15:12:21.480Z,7.20
2023-05-06T15:17:24.138Z,7.10
2023-05-06T15:22:26.625Z,7.10
2023-05-06T15:32:32.119Z,7.00
2023-05-06T15:37:34.995Z,7.00
2023-05-06T15:42:38.570Z,7.00
2023-05-06T15:47:41.241Z,6.90
2023-05-06T15:52:45.041Z,6.90
2023-05-06T15:57:47.739Z,6.90
2023-05-06T16:02:50.416Z,6.90
2023-05-06T16:07:53.034Z,6.90
2023-05-06T16:12:55.650Z,6.90
2023-05-06T16:17:58.596Z,6.80
2023-05-06T16:23:01.305Z,6.70
2023-05-06T16:28:04.896Z,6.80
2023-05-06T16:33:07.762Z,6.60
2023-05-06T16:38:10.679Z,6.10
2023-05-06T16:43:13.160Z,6.50
2023-05-06T16:48:16.888Z,6.60
2023-05-06T16:53:19.515Z,6.60
2023-05-06T16:58:22.529Z,6.60
2023-05-06T17:03:25.485Z,6.60
2023-05-06T17:08:28.281Z,6.60
2023-05-06T17:13:31.332Z,6.60
2023-05-06T17:18:33.865Z,6.50
2023-05-06T17:28:39.479Z,6.70
2023-05-06T17:33:42.296Z,6.60
2023-05-06T17:38:45.066Z,6.60
2023-05-06T17:43:47.620Z,6.60
2023-05-06T17:48:51.002Z,6.60
2023-05-06T17:53:53.616Z,6.60
2023-05-06T17:59:01.263Z,6.60
2023-05-06T18:04:04.328Z,6.60
2023-05-06T18:09:07.406Z,6.60
2023-05-06T18:14:10.106Z,6.60
2023-05-06T18:19:12.692Z,6.60
2023-05-06T18:29:19.742Z,6.70
2023-05-06T18:34:22.632Z,6.70
2023-05-06T18:39:26.014Z,6.70
2023-05-06T18:44:28.628Z,6.60
2023-05-06T18:49:31.536Z,6.70
2023-05-06T18:54:34.012Z,6.60
2023-05-06T18:59:36.823Z,6.60
2023-05-06T19:04:39.439Z,6.50
2023-05-06T19:09:43.118Z,6.60
2023-05-06T19:14:45.716Z,6.60
2023-05-06T19:19:49.157Z,11.10
2023-05-06T19:24:52.383Z,6.40
2023-05-06T19:29:55.256Z,6.50
2023-05-06T19:34:59.343Z,6.30
2023-05-06T19:40:03.941Z,6.30
2023-05-06T19:45:08.159Z,6.30
2023-05-06T19:50:11.946Z,6.40
2023-05-06T19:55:14.824Z,6.40
2023-05-06T20:00:20.079Z,6.50
2023-05-06T20:05:22.844Z,6.50
2023-05-06T20:10:27.350Z,6.50
2023-05-06T20:15:31.055Z,6.50
2023-05-06T20:20:36.283Z,6.50
2023-05-06T20:25:38.895Z,6.50
2023-05-06T20:30:41.533Z,6.50
2023-05-06T20:35:44.162Z,6.50
2023-05-06T20:40:48.066Z,6.50
2023-05-06T20:45:51.012Z,6.50
2023-05-06T20:50:54.912Z,6.40
2023-05-06T20:55:57.388Z,6.40
2023-05-06T21:01:00.062Z,6.40
2023-05-06T21:06:03.757Z,6.40
2023-05-06T21:11:06.888Z,6.40
2023-05-06T21:16:09.488Z,6.40
2023-05-06T21:21:12.044Z,6.30
2023-05-06T21:26:15.653Z,6.30
2023-05-06T21:31:23.183Z,6.30
2023-05-06T21:36:26.160Z,6.40
2023-05-06T21:41:28.667Z,6.40
2023-05-06T21:46:32.562Z,6.40
2023-05-06T21:51:36.502Z,6.40
2023-05-06T21:56:39.073Z,6.40
2023-05-06T22:01:41.540Z,6.40
2023-05-06T22:06:44.226Z,6.40
2023-05-06T22:11:47.167Z,6.40
2023-05-06T22:16:50.274Z,6.40
2023-05-06T22:21:53.318Z,6.40
2023-05-06T22:26:56.899Z,6.40
2023-05-06T22:31:59.631Z,6.40
2023-05-06T22:37:09.815Z,6.40
2023-05-06T22:42:12.275Z,6.30
2023-05-06T22:47:16.411Z,6.30
2023-05-06T22:52:20.241Z,6.30
2023-05-06T22:57:25.593Z,6.30
2023-05-06T23:02:28.601Z,6.40
2023-05-06T23:07:31.303Z,6.40
2023-05-06T23:12:34.822Z,6.30
2023-05-06T23:17:37.471Z,6.30
2023-05-06T23:22:39.951Z,6.40
2023-05-06T23:27:42.705Z,6.40
2023-05-06T23:32:45.520Z,6.40
2023-05-06T23:37:48.015Z,6.40
2023-05-06T23:42:50.439Z,6.30
2023-05-06T23:47:53.969Z,6.30
2023-05-06T23:52:56.537Z,6.30
2023-05-06T23:57:59.155Z,6.30
